Time;durP1;ratioP1;P1;durP2;ratioP2;P2;SDS_P1;SDS_P2;PMS_P1;PMS_P2;Temp;Humidity;BMP_temperature;BMP_pressure;BME280_temperature;BME280_humidity;BME280_pressure;Samples;Min_cycle;Max_cycle;Signal;HPM_P1;HPM_P2
2023/10/24 00:01:20;;;;;;;8.17;6.33;;;13.10;99.90;;;;;;5093032;28;20181;-70
2023/10/24 00:03:46;;;;;;;8.10;6.70;;;13.10;99.90;;;;;;5091656;28;20178;-71
2023/10/24 00:06:11;;;;;;;10.07;7.23;;;13.10;99.90;;;;;;5092959;28;20249;-71
2023/10/24 00:08:37;;;;;;;6.53;6.00;;;13.10;99.90;;;;;;5091638;28;20674;-71
2023/10/24 00:11:05;;;;;;;8.50;6.37;;;13.00;99.90;;;;;;5092852;28;20169;-71
2023/10/24 00:13:31;;;;;;;8.30;6.07;;;13.00;99.90;;;;;;5092101;28;20193;-70
2023/10/24 00:15:58;;;;;;;7.07;5.90;;;13.10;99.90;;;;;;5093403;28;20170;-72
2023/10/24 00:18:25;;;;;;;6.53;5.80;;;13.10;99.90;;;;;;5092418;28;20200;-71
2023/10/24 00:20:51;;;;;;;6.70;6.03;;;13.10;99.90;;;;;;5091490;28;20706;-71
2023/10/24 00:23:16;;;;;;;7.20;6.00;;;13.10;99.90;;;;;;5092260;28;20252;-72
2023/10/24 00:25:42;;;;;;;7.80;5.67;;;13.10;99.90;;;;;;5092526;28;20587;-71
2023/10/24 00:28:08;;;;;;;7.17;5.93;;;13.00;99.90;;;;;;5092323;28;20189;-71
2023/10/24 00:30:33;;;;;;;10.47;6.60;;;13.00;99.90;;;;;;5092685;28;20219;-72
2023/10/24 00:32:59;;;;;;;6.70;6.00;;;12.90;99.90;;;;;;5092396;28;20197;-71
2023/10/24 00:35:24;;;;;;;6.57;5.87;;;12.90;99.90;;;;;;5091156;28;20173;-72
2023/10/24 00:37:50;;;;;;;7.50;5.80;;;12.80;99.90;;;;;;5092387;28;20197;-71
2023/10/24 00:40:16;;;;;;;8.60;5.70;;;12.70;99.90;;;;;;5090587;28;20180;-71
2023/10/24 00:42:41;;;;;;;8.13;5.70;;;12.70;99.90;;;;;;5092095;28;20173;-72
2023/10/24 00:45:08;;;;;;;8.03;6.93;;;12.70;99.90;;;;;;5092164;28;20178;-72
2023/10/24 00:47:34;;;;;;;7.30;6.60;;;12.70;99.90;;;;;;5092267;28;20170;-72
2023/10/24 00:49:59;;;;;;;8.27;7.37;;;12.70;99.90;;;;;;5092253;28;20180;-72
2023/10/24 00:52:26;;;;;;;11.73;7.10;;;12.70;99.90;;;;;;5091890;28;20205;-72
2023/10/24 00:54:51;;;;;;;9.40;7.10;;;12.70;99.90;;;;;;5090785;28;20170;-71
2023/10/24 00:57:17;;;;;;;9.37;7.20;;;12.70;99.90;;;;;;5090711;28;20197;-71
2023/10/24 00:59:43;;;;;;;8.00;7.20;;;12.70;99.90;;;;;;5090787;28;20189;-73
2023/10/24 01:02:10;;;;;;;8.27;6.47;;;12.60;99.90;;;;;;5091776;28;20205;-72
2023/10/24 01:04:37;;;;;;;8.77;6.93;;;12.60;99.90;;;;;;5092102;28;20703;-71
2023/10/24 01:07:02;;;;;;;9.73;7.27;;;12.60;99.90;;;;;;5091742;28;20187;-71
2023/10/24 01:09:28;;;;;;;8.23;7.43;;;12.60;99.90;;;;;;5091795;28;20201;-70
2023/10/24 01:11:55;;;;;;;7.97;7.13;;;12.60;99.90;;;;;;5091889;28;20220;-71
2023/10/24 01:14:20;;;;;;;10.03;7.30;;;12.50;99.90;;;;;;5091541;28;20173;-71
2023/10/24 01:16:46;;;;;;;14.17;8.23;;;12.50;99.90;;;;;;5090984;28;20169;-72
2023/10/24 01:19:12;;;;;;;10.17;8.00;;;12.50;99.90;;;;;;5091326;28;20276;-71
2023/10/24 01:21:44;;;;;;;8.67;7.20;;;12.50;99.90;;;;;;5091409;28;20203;-72
2023/10/24 01:24:12;;;;;;;10.03;7.87;;;12.50;99.90;;;;;;5091247;28;20214;-74
2023/10/24 01:26:38;;;;;;;9.77;7.90;;;12.50;99.90;;;;;;5091418;28;20165;-71
2023/10/24 01:29:04;;;;;;;8.60;7.80;;;12.50;99.90;;;;;;5091482;28;20181;-73
2023/10/24 01:31:30;;;;;;;9.13;7.53;;;12.50;99.90;;;;;;5092575;28;20781;-74
2023/10/24 01:33:56;;;;;;;8.37;7.47;;;12.50;99.90;;;;;;5093462;28;20166;-73
2023/10/24 01:36:21;;;;;;;10.63;7.53;;;12.40;99.90;;;;;;5093266;28;20246;-74
2023/10/24 01:38:47;;;;;;;8.40;7.60;;;12.50;99.90;;;;;;5092663;28;20197;-72
2023/10/24 01:41:13;;;;;;;10.10;7.80;;;12.50;99.90;;;;;;5092965;28;20227;-72
2023/10/24 01:43:38;;;;;;;8.73;7.70;;;12.50;99.90;;;;;;5092097;28;20195;-72
2023/10/24 01:46:04;;;;;;;10.07;7.93;;;12.50;99.90;;;;;;5091514;28;20169;-72
2023/10/24 01:48:30;;;;;;;9.80;7.63;;;12.50;99.90;;;;;;5090600;28;20215;-73
2023/10/24 01:50:55;;;;;;;11.50;7.40;;;12.50;99.90;;;;;;5091186;28;20173;-72
2023/10/24 01:53:22;;;;;;;8.60;6.57;;;12.50;99.90;;;;;;5090628;28;20193;-72
2023/10/24 01:55:48;;;;;;;8.33;7.07;;;12.50;99.90;;;;;;5091121;28;20177;-72
2023/10/24 01:58:13;;;;;;;7.47;6.87;;;12.60;99.90;;;;;;5090757;28;20189;-71
2023/10/24 02:00:39;;;;;;;9.97;7.47;;;12.60;99.90;;;;;;5091160;28;20165;-71
2023/10/24 02:03:04;;;;;;;11.80;7.57;;;12.60;99.90;;;;;;5090019;28;20184;-73
2023/10/24 02:05:30;;;;;;;9.50;7.30;;;12.60;99.90;;;;;;5090805;28;20213;-72
2023/10/24 02:07:56;;;;;;;7.37;6.77;;;12.60;99.90;;;;;;5090852;28;20272;-71
2023/10/24 02:10:21;;;;;;;8.13;6.47;;;12.60;99.90;;;;;;5090740;28;20242;-71
2023/10/24 02:12:47;;;;;;;9.63;6.83;;;12.60;99.90;;;;;;5090556;28;20197;-71
2023/10/24 02:15:13;;;;;;;11.33;7.33;;;12.60;99.90;;;;;;5091178;28;20177;-71
2023/10/24 02:17:41;;;;;;;7.57;6.23;;;12.60;99.90;;;;;;5091366;28;20532;-72
2023/10/24 02:20:08;;;;;;;7.57;6.50;;;12.60;99.90;;;;;;5091289;28;20189;-71
2023/10/24 02:22:33;;;;;;;7.53;6.43;;;12.60;99.90;;;;;;5090990;28;20177;-71
2023/10/24 02:24:59;;;;;;;10.03;5.83;;;12.60;99.90;;;;;;5091207;28;20646;-71
2023/10/24 02:27:25;;;;;;;6.40;5.80;;;12.70;99.90;;;;;;5091931;28;20181;-72
2023/10/24 02:29:51;;;;;;;6.97;5.30;;;12.70;99.90;;;;;;5095014;28;20208;-71
2023/10/24 02:32:17;;;;;;;6.20;5.63;;;12.70;99.90;;;;;;5095048;28;20193;-70
2023/10/24 02:34:42;;;;;;;6.37;5.60;;;12.70;99.90;;;;;;5095034;28;20174;-71
2023/10/24 02:37:08;;;;;;;5.87;5.37;;;12.70;99.90;;;;;;5094907;28;20516;-71
2023/10/24 02:39:33;;;;;;;6.03;5.07;;;12.70;99.90;;;;;;5095013;28;20193;-71
2023/10/24 02:42:00;;;;;;;8.27;5.50;;;12.70;99.90;;;;;;5095229;28;20262;-71
2023/10/24 02:44:25;;;;;;;5.40;4.90;;;12.80;99.90;;;;;;5093324;28;20174;-71
2023/10/24 02:46:51;;;;;;;5.80;5.23;;;12.80;99.90;;;;;;5095323;28;20638;-72
2023/10/24 02:49:18;;;;;;;6.53;4.90;;;12.80;99.90;;;;;;5098696;22;20217;-86
2023/10/24 02:51:44;;;;;;;6.07;4.63;;;12.90;99.90;;;;;;5078044;28;20649;-85
2023/10/24 02:54:11;;;;;;;5.03;4.63;;;12.90;99.90;;;;;;5094614;28;20225;-85
2023/10/24 02:56:37;;;;;;;5.30;4.80;;;12.90;99.90;;;;;;5095971;28;20181;-85
2023/10/24 02:59:04;;;;;;;6.70;4.50;;;12.90;99.90;;;;;;5096339;28;20183;-85
2023/10/24 03:01:29;;;;;;;4.50;4.20;;;12.90;99.90;;;;;;5077989;28;20204;-85
2023/10/24 03:03:55;;;;;;;4.87;4.10;;;12.90;99.90;;;;;;5061004;28;20182;-85
2023/10/24 03:06:21;;;;;;;5.23;4.50;;;12.90;99.90;;;;;;5077634;28;20264;-85
2023/10/24 03:08:48;;;;;;;5.43;4.40;;;12.90;99.90;;;;;;5077673;28;20177;-86
2023/10/24 03:11:22;;;;;;;6.97;4.30;;;12.80;99.90;;;;;;5078493;28;20169;-85
2023/10/24 03:13:47;;;;;;;4.50;4.13;;;12.80;99.90;;;;;;5078438;28;20201;-86
2023/10/24 03:16:13;;;;;;;3.73;3.50;;;12.80;99.90;;;;;;5077895;28;20652;-85
2023/10/24 03:18:39;;;;;;;5.23;4.53;;;12.80;99.90;;;;;;5077784;28;20266;-85
2023/10/24 03:21:06;;;;;;;5.40;4.00;;;12.90;99.90;;;;;;5081222;28;20647;-85
2023/10/24 03:23:31;;;;;;;4.07;3.77;;;12.90;99.90;;;;;;5097086;28;20660;-85
2023/10/24 03:25:57;;;;;;;4.20;3.90;;;12.90;99.90;;;;;;5082332;28;20194;-85
2023/10/24 03:28:22;;;;;;;4.80;3.70;;;12.90;99.90;;;;;;5093005;28;20177;-85
2023/10/24 03:30:48;;;;;;;4.30;3.87;;;13.00;99.90;;;;;;5096992;28;20233;-85
2023/10/24 03:33:14;;;;;;;4.43;3.40;;;13.00;99.90;;;;;;5093512;28;20665;-86
2023/10/24 03:35:40;;;;;;;3.90;3.60;;;13.00;99.90;;;;;;5094735;28;20197;-86
2023/10/24 03:38:06;;;;;;;4.33;3.93;;;13.00;99.90;;;;;;5076831;28;20450;-85
2023/10/24 03:40:32;;;;;;;4.13;3.83;;;13.00;99.90;;;;;;5095689;28;20202;-85
2023/10/24 03:42:58;;;;;;;3.83;3.63;;;13.10;99.90;;;;;;5094511;28;20165;-86
2023/10/24 03:45:24;;;;;;;4.50;4.00;;;13.10;99.90;;;;;;5094179;28;20193;-85
2023/10/24 03:47:49;;;;;;;3.40;3.20;;;13.10;99.90;;;;;;5095385;28;20192;-85
2023/10/24 03:50:16;;;;;;;3.67;3.47;;;13.10;99.90;;;;;;5094592;28;20196;-86
2023/10/24 03:52:42;;;;;;;3.57;3.37;;;13.10;99.90;;;;;;5094070;28;20212;-85
2023/10/24 03:55:12;;;;;;;3.50;3.20;;;13.10;99.90;;;;;;5095304;28;20698;-86
2023/10/24 03:57:42;;;;;;;4.60;3.50;;;13.10;99.90;;;;;;5077495;28;20201;-85
2023/10/24 04:00:09;;;;;;;4.43;3.33;;;13.10;99.90;;;;;;5074858;28;20648;-86
2023/10/24 04:02:36;;;;;;;3.00;2.90;;;13.10;99.90;;;;;;5076890;28;20197;-85
2023/10/24 04:05:03;;;;;;;4.43;3.23;;;13.10;99.90;;;;;;5078847;28;20243;-86
2023/10/24 04:07:29;;;;;;;5.47;3.13;;;13.10;99.90;;;;;;5096641;28;20173;-85
2023/10/24 04:09:56;;;;;;;3.33;3.13;;;13.10;99.90;;;;;;5097247;28;20557;-85
2023/10/24 04:12:22;;;;;;;3.27;3.07;;;13.10;99.90;;;;;;5097890;28;20219;-85
2023/10/24 04:14:47;;;;;;;3.27;3.07;;;13.10;99.90;;;;;;5106818;28;20260;-85
2023/10/24 04:17:15;;;;;;;3.33;3.03;;;13.00;99.90;;;;;;5103551;28;20169;-85
2023/10/24 04:19:41;;;;;;;2.93;2.80;;;13.00;99.90;;;;;;5093615;28;20181;-86
2023/10/24 04:22:07;;;;;;;3.83;3.40;;;13.00;99.90;;;;;;5094643;28;20192;-85
2023/10/24 04:24:32;;;;;;;3.27;3.07;;;12.90;99.90;;;;;;5077275;28;20205;-85
2023/10/24 04:26:59;;;;;;;3.10;2.90;;;12.90;99.90;;;;;;5060505;28;20683;-85
2023/10/24 04:29:24;;;;;;;3.20;2.90;;;12.80;99.90;;;;;;5076404;28;20174;-85
2023/10/24 04:31:50;;;;;;;3.33;2.70;;;12.80;99.90;;;;;;5076532;28;20556;-85
2023/10/24 04:34:16;;;;;;;2.60;2.50;;;12.80;99.90;;;;;;5076383;28;20189;-85
2023/10/24 04:36:42;;;;;;;4.30;4.00;;;12.80;99.90;;;;;;5093784;28;20172;-87
2023/10/24 04:39:08;;;;;;;3.00;2.80;;;12.70;99.90;;;;;;5095638;28;20231;-85
2023/10/24 04:41:33;;;;;;;2.93;2.73;;;12.70;99.90;;;;;;5095285;28;20177;-85
2023/10/24 04:43:59;;;;;;;3.17;2.97;;;12.60;99.90;;;;;;5077708;28;20182;-85
2023/10/24 04:46:25;;;;;;;3.13;2.93;;;12.60;99.90;;;;;;5094844;28;20278;-85
2023/10/24 04:48:50;;;;;;;3.07;2.90;;;12.60;99.90;;;;;;5086569;28;20197;-85
2023/10/24 04:51:17;;;;;;;3.33;2.90;;;12.50;99.90;;;;;;5095139;28;20226;-85
2023/10/24 04:53:44;;;;;;;3.47;3.27;;;12.50;99.90;;;;;;5092845;28;20209;-84
2023/10/24 04:56:09;;;;;;;3.23;3.03;;;12.50;99.90;;;;;;5095311;28;20177;-84
2023/10/24 04:58:38;;;;;;;3.07;2.87;;;12.50;99.90;;;;;;5093910;28;20178;-85
2023/10/24 05:01:04;;;;;;;3.30;3.10;;;12.40;99.90;;;;;;5094916;28;20245;-85
2023/10/24 05:03:30;;;;;;;3.53;3.23;;;12.30;99.90;;;;;;5089452;28;20209;-85
2023/10/24 05:05:55;;;;;;;3.40;3.10;;;12.30;99.90;;;;;;5077336;28;20197;-85
2023/10/24 05:08:21;;;;;;;3.37;3.10;;;12.20;99.90;;;;;;5095728;28;20181;-84
2023/10/24 05:10:47;;;;;;;3.20;3.00;;;12.20;99.90;;;;;;5097302;28;20231;-85
2023/10/24 05:13:13;;;;;;;4.87;3.37;;;12.10;99.90;;;;;;5063916;28;20221;-86
2023/10/24 05:15:38;;;;;;;3.43;3.20;;;12.10;99.90;;;;;;5082136;28;20186;-85
2023/10/24 05:18:09;;;;;;;3.60;3.40;;;12.10;99.90;;;;;;5116146;28;20193;-83
2023/10/24 05:20:35;;;;;;;3.37;3.17;;;12.10;99.90;;;;;;5116672;28;20182;-84
2023/10/24 05:23:01;;;;;;;3.63;3.33;;;12.10;99.90;;;;;;5116403;28;20181;-83
2023/10/24 05:25:26;;;;;;;3.20;3.00;;;12.20;99.90;;;;;;5083752;28;20197;-84
2023/10/24 05:27:54;;;;;;;3.10;2.90;;;12.20;99.90;;;;;;5117448;28;20161;-83
2023/10/24 05:30:21;;;;;;;3.13;3.00;;;12.20;99.90;;;;;;5100452;28;20192;-85
2023/10/24 05:32:47;;;;;;;3.07;2.90;;;12.30;99.90;;;;;;5117023;28;20217;-84
2023/10/24 05:35:13;;;;;;;3.30;3.10;;;12.20;99.90;;;;;;5117841;28;20200;-85
2023/10/24 05:37:38;;;;;;;3.13;2.93;;;12.30;99.90;;;;;;5116624;28;20181;-84
2023/10/24 05:40:06;;;;;;;3.37;3.13;;;12.30;99.90;;;;;;5100648;28;20181;-85
2023/10/24 05:42:31;;;;;;;3.20;3.00;;;12.30;99.90;;;;;;5106979;28;20169;-84
2023/10/24 05:44:57;;;;;;;4.13;3.00;;;12.40;99.90;;;;;;5110389;28;20193;-87
2023/10/24 05:47:26;;;;;;;3.57;3.30;;;12.40;99.90;;;;;;5095551;28;20197;-92
2023/10/24 05:49:51;;;;;;;4.80;3.30;;;12.40;99.90;;;;;;5095903;28;20199;-85
2023/10/24 05:52:18;;;;;;;3.10;2.90;;;12.40;99.90;;;;;;5110104;28;20221;-85
2023/10/24 05:54:44;;;;;;;3.40;3.20;;;12.50;99.90;;;;;;5090797;28;20200;-85
2023/10/24 05:57:11;;;;;;;4.37;3.00;;;12.40;99.90;;;;;;5091662;28;20181;-85
2023/10/24 05:59:36;;;;;;;3.20;3.00;;;12.40;99.90;;;;;;5110325;28;20203;-85
2023/10/24 06:02:02;;;;;;;3.20;3.00;;;12.50;99.90;;;;;;5093694;28;20181;-84
2023/10/24 06:04:29;;;;;;;3.40;3.20;;;12.50;99.90;;;;;;5095564;28;20205;-85
2023/10/24 06:06:54;;;;;;;3.77;3.47;;;12.50;99.90;;;;;;5080856;28;20186;-85
2023/10/24 06:09:21;;;;;;;5.70;3.30;;;12.60;99.90;;;;;;5090893;28;20192;-85
2023/10/24 06:11:47;;;;;;;3.23;3.00;;;12.60;99.90;;;;;;5111854;28;20173;-85
2023/10/24 06:14:12;;;;;;;3.50;3.20;;;12.60;99.90;;;;;;5103485;28;20204;-86
2023/10/24 06:16:39;;;;;;;3.40;3.20;;;12.60;99.90;;;;;;5109687;28;20174;-85
2023/10/24 06:19:05;;;;;;;3.47;3.27;;;12.70;99.90;;;;;;5088561;28;20227;-86
2023/10/24 06:21:30;;;;;;;3.30;3.00;;;12.70;99.90;;;;;;5087902;28;20186;-86
2023/10/24 06:23:56;;;;;;;3.23;2.90;;;12.70;99.90;;;;;;5090472;28;20245;-85
2023/10/24 06:26:22;;;;;;;2.90;2.80;;;12.70;99.90;;;;;;5091227;28;20686;-85
2023/10/24 06:28:47;;;;;;;3.30;3.10;;;12.70;99.90;;;;;;5090600;28;20260;-85
2023/10/24 06:31:13;;;;;;;3.20;3.00;;;12.70;99.90;;;;;;5090286;28;20197;-86
2023/10/24 06:33:40;;;;;;;3.13;2.93;;;12.70;99.90;;;;;;5089387;28;20197;-85
2023/10/24 06:36:06;;;;;;;3.30;3.10;;;12.80;99.90;;;;;;5110211;28;20197;-86
2023/10/24 06:38:33;;;;;;;3.20;3.00;;;12.80;99.90;;;;;;5090328;28;20181;-85
2023/10/24 06:40:58;;;;;;;3.20;2.93;;;12.80;99.90;;;;;;5091686;28;20178;-89
2023/10/24 06:43:25;;;;;;;3.50;3.20;;;12.70;99.90;;;;;;5092582;28;20181;-86
2023/10/24 06:45:51;;;;;;;3.30;3.10;;;12.80;99.90;;;;;;5099378;28;20700;-86
2023/10/24 06:48:17;;;;;;;3.10;2.90;;;12.80;99.90;;;;;;5109659;28;20193;-86
2023/10/24 06:50:43;;;;;;;2.93;2.83;;;12.80;99.90;;;;;;5098093;28;20193;-85
2023/10/24 06:53:10;;;;;;;3.40;3.10;;;12.90;99.90;;;;;;5107363;28;20315;-86
2023/10/24 06:55:39;;;;;;;3.10;2.90;;;12.90;99.90;;;;;;5092436;28;20525;-86
2023/10/24 06:58:06;;;;;;;3.23;3.03;;;12.90;99.90;;;;;;5114384;28;20443;-85
2023/10/24 07:00:32;;;;;;;3.70;3.40;;;12.90;99.90;;;;;;5100756;28;20193;-85
2023/10/24 07:02:58;;;;;;;3.10;2.90;;;13.00;99.90;;;;;;5093396;28;20260;-86
2023/10/24 07:05:24;;;;;;;3.83;2.90;;;13.00;99.90;;;;;;5111307;28;20197;-86
2023/10/24 07:07:49;;;;;;;3.30;3.10;;;13.10;99.90;;;;;;5113066;28;20208;-86
2023/10/24 07:10:15;;;;;;;6.70;3.30;;;13.10;99.90;;;;;;5112620;28;20186;-85
2023/10/24 07:12:41;;;;;;;6.83;3.23;;;13.10;99.90;;;;;;5094105;28;20209;-86
2023/10/24 07:15:09;;;;;;;3.37;3.17;;;13.20;99.90;;;;;;5103963;28;20293;-86
2023/10/24 07:17:35;;;;;;;3.37;2.70;;;13.20;99.90;;;;;;5115779;28;20188;-85
2023/10/24 07:20:01;;;;;;;2.90;2.70;;;13.20;99.90;;;;;;5114989;28;20244;-86
2023/10/24 07:22:28;;;;;;;3.20;3.00;;;13.20;99.90;;;;;;5114463;28;20162;-85
2023/10/24 07:24:54;;;;;;;7.03;2.90;;;13.30;99.90;;;;;;5095114;28;20193;-86
2023/10/24 07:27:21;;;;;;;2.87;2.70;;;13.30;99.90;;;;;;5093843;28;20197;-86
2023/10/24 07:29:47;;;;;;;3.37;2.80;;;13.30;99.90;;;;;;5113483;28;20241;-85
2023/10/24 07:32:13;;;;;;;3.47;3.00;;;13.40;99.90;;;;;;5098277;28;20201;-84
2023/10/24 07:34:41;;;;;;;3.57;3.10;;;13.40;99.90;;;;;;5114949;28;20322;-84
2023/10/24 07:37:08;;;;;;;3.37;2.90;;;13.40;99.90;;;;;;5097732;28;20178;-85
2023/10/24 07:39:34;;;;;;;3.90;3.37;;;13.40;99.90;;;;;;5099291;28;20158;-85
2023/10/24 07:42:00;;;;;;;4.33;3.00;;;13.40;99.90;;;;;;5083254;28;20177;-85
2023/10/24 07:44:26;;;;;;;3.03;2.90;;;13.50;99.90;;;;;;5115184;28;20273;-85
2023/10/24 07:46:53;;;;;;;3.03;2.83;;;13.50;99.90;;;;;;5118056;28;20169;-85
2023/10/24 07:49:18;;;;;;;4.57;3.40;;;13.60;99.90;;;;;;5082281;28;20212;-84
2023/10/24 07:51:44;;;;;;;4.63;3.27;;;13.60;99.90;;;;;;5112442;28;20165;-85
2023/10/24 07:54:13;;;;;;;3.33;2.80;;;13.70;99.90;;;;;;5118041;28;20203;-84
2023/10/24 07:56:40;;;;;;;3.53;3.00;;;13.70;99.90;;;;;;5098448;28;20154;-85
2023/10/24 07:59:07;;;;;;;3.07;2.87;;;13.70;99.90;;;;;;5071452;28;20546;-85
2023/10/24 08:01:35;;;;;;;2.90;2.60;;;13.80;99.90;;;;;;5083081;28;20170;-85
2023/10/24 08:04:01;;;;;;;2.93;2.80;;;13.80;99.90;;;;;;5081497;28;20173;-85
2023/10/24 08:06:27;;;;;;;4.60;2.73;;;13.80;99.90;;;;;;5082223;28;20533;-84
2023/10/24 08:08:53;;;;;;;3.07;2.90;;;13.90;99.90;;;;;;5084349;28;20212;-84
2023/10/24 08:11:18;;;;;;;3.10;2.80;;;13.90;99.90;;;;;;5081906;28;20177;-85
2023/10/24 08:13:44;;;;;;;3.30;3.00;;;14.00;99.90;;;;;;5064037;28;20217;-84
2023/10/24 08:16:09;;;;;;;4.17;3.10;;;14.00;99.90;;;;;;5100064;28;20182;-84
2023/10/24 08:18:35;;;;;;;3.47;3.17;;;14.00;99.90;;;;;;5099199;28;20652;-84
2023/10/24 08:21:01;;;;;;;3.47;3.17;;;14.00;99.90;;;;;;5081181;28;20256;-84
2023/10/24 08:23:30;;;;;;;3.33;3.00;;;14.10;99.90;;;;;;5081455;28;20591;-88
2023/10/24 08:25:56;;;;;;;3.33;3.00;;;14.10;99.90;;;;;;5082211;28;20238;-85
2023/10/24 08:28:23;;;;;;;3.10;2.80;;;14.10;99.90;;;;;;5082391;28;20178;-85
2023/10/24 08:30:56;;;;;;;2.90;2.70;;;14.20;99.90;;;;;;5103324;28;20182;-86
2023/10/24 08:33:23;;;;;;;3.37;2.77;;;14.20;99.90;;;;;;5081158;28;20198;-84
2023/10/24 08:35:49;;;;;;;3.17;2.97;;;14.30;99.90;;;;;;5094686;28;20258;-85
2023/10/24 08:38:15;;;;;;;2.97;2.77;;;14.40;99.90;;;;;;5110337;28;20188;-85
2023/10/24 08:40:41;;;;;;;3.17;2.90;;;14.40;99.90;;;;;;5102824;28;20177;-85
2023/10/24 08:43:10;;;;;;;2.87;2.60;;;14.60;99.90;;;;;;5081127;28;20184;-85
2023/10/24 08:45:36;;;;;;;4.13;3.13;;;14.60;99.90;;;;;;5099145;28;20254;-86
2023/10/24 08:48:05;;;;;;;2.93;2.73;;;14.70;99.90;;;;;;5096710;28;20260;-86
2023/10/24 08:50:32;;;;;;;3.63;2.63;;;14.80;99.90;;;;;;5083766;28;20215;-84
2023/10/24 08:52:59;;;;;;;3.60;2.70;;;14.90;99.90;;;;;;5089061;28;20201;-85
2023/10/24 08:55:27;;;;;;;3.17;2.87;;;15.00;99.90;;;;;;5083772;28;20247;-85
2023/10/24 08:57:54;;;;;;;3.00;2.80;;;15.00;99.90;;;;;;5079056;28;20169;-86
2023/10/24 09:00:19;;;;;;;2.93;2.80;;;15.20;99.90;;;;;;5097467;28;20246;-85
2023/10/24 09:02:45;;;;;;;2.90;2.70;;;15.30;99.90;;;;;;5058760;28;20236;-85
2023/10/24 09:05:13;;;;;;;2.90;2.80;;;15.40;99.90;;;;;;5095554;28;20205;-86
2023/10/24 09:07:39;;;;;;;2.93;2.73;;;15.50;99.90;;;;;;5096474;28;20260;-85
2023/10/24 09:10:07;;;;;;;3.00;2.80;;;15.50;99.90;;;;;;5062017;28;20532;-85
2023/10/24 09:12:38;;;;;;;2.90;2.60;;;15.50;99.90;;;;;;5061968;28;20205;-84
2023/10/24 09:15:08;;;;;;;2.87;2.63;;;15.50;99.90;;;;;;5097427;28;20276;-85
2023/10/24 09:17:33;;;;;;;2.87;2.60;;;15.40;99.90;;;;;;5079052;28;20177;-85
2023/10/24 09:19:59;;;;;;;2.80;2.60;;;15.40;99.90;;;;;;5085352;28;20174;-86
2023/10/24 09:22:29;;;;;;;2.80;2.53;;;15.30;99.90;;;;;;5096309;28;20653;-87
2023/10/24 09:24:59;;;;;;;4.50;2.77;;;15.30;99.90;;;;;;5079963;28;20217;-85
2023/10/24 09:27:25;;;;;;;3.43;3.23;;;15.20;99.90;;;;;;5092938;28;20215;-85
2023/10/24 09:29:51;;;;;;;3.63;3.40;;;15.10;99.90;;;;;;5093451;28;20186;-85
2023/10/24 09:32:17;;;;;;;3.57;3.30;;;15.10;99.90;;;;;;5095787;28;20205;-85
2023/10/24 09:34:45;;;;;;;3.70;3.40;;;15.10;99.90;;;;;;5094784;28;20340;-85
2023/10/24 09:37:13;;;;;;;3.50;2.70;;;15.10;99.90;;;;;;5094346;28;20180;-85
2023/10/24 09:39:59;;;;;;;3.10;2.90;;;15.10;99.90;;;;;;5097216;28;20169;-85
2023/10/24 09:42:27;;;;;;;4.50;3.07;;;15.20;99.90;;;;;;5095253;28;20192;-86
2023/10/24 09:44:57;;;;;;;3.73;2.90;;;15.20;99.90;;;;;;5095832;28;20575;-86
2023/10/24 09:47:27;;;;;;;3.00;2.80;;;15.30;99.90;;;;;;5064589;28;20184;-86
2023/10/24 09:49:54;;;;;;;3.17;2.97;;;15.20;99.90;;;;;;5083797;28;20204;-85
2023/10/24 09:52:23;;;;;;;3.13;2.93;;;15.20;99.90;;;;;;5082510;28;20220;-84
2023/10/24 09:54:53;;;;;;;2.90;2.70;;;15.20;99.90;;;;;;5096050;28;20210;-85
2023/10/24 09:57:21;;;;;;;3.27;2.97;;;15.30;99.90;;;;;;5095731;28;20177;-85
2023/10/24 09:59:51;;;;;;;3.47;3.03;;;15.50;99.90;;;;;;5078248;28;20173;-88
2023/10/24 10:02:19;;;;;;;3.13;2.93;;;15.60;99.90;;;;;;5097037;28;20552;-85
2023/10/24 10:04:48;;;;;;;3.10;2.90;;;15.80;99.90;;;;;;5095953;28;20277;-85
2023/10/24 10:07:15;;;;;;;3.07;2.87;;;16.00;99.90;;;;;;5062871;28;20181;-86
2023/10/24 10:09:46;;;;;;;2.90;2.70;;;16.10;99.90;;;;;;5098467;28;20315;-86
2023/10/24 10:12:13;;;;;;;2.83;2.63;;;16.10;99.90;;;;;;5098629;28;20196;-85
2023/10/24 10:15:01;;;;;;;4.20;3.07;;;16.20;99.90;;;;;;5112862;28;20185;-83
2023/10/24 10:17:46;;;;;;;3.10;2.80;;;16.20;99.90;;;;;;5098878;28;20161;-84
2023/10/24 10:20:29;;;;;;;3.20;2.90;;;16.30;99.90;;;;;;5087122;28;20177;-86
2023/10/24 10:23:17;;;;;;;2.90;2.70;;;16.30;99.90;;;;;;5080447;28;20177;-86
2023/10/24 10:25:45;;;;;;;3.00;2.50;;;16.40;99.90;;;;;;5069679;28;20220;-85
2023/10/24 10:31:22;;;;;;;2.70;2.50;;;16.50;99.90;;;;;;5088401;28;20576;-73
2023/10/24 10:33:48;;;;;;;2.77;2.57;;;16.70;99.90;;;;;;5089888;28;20209;-73
2023/10/24 10:36:13;;;;;;;2.93;2.70;;;16.80;99.90;;;;;;5090598;28;20200;-73
2023/10/24 10:38:46;;;;;;;2.97;2.77;;;16.80;99.90;;;;;;5090070;28;20249;-74
2023/10/24 10:41:21;;;;;;;2.80;2.63;;;16.70;99.90;;;;;;5090343;28;20222;-73
2023/10/24 10:43:51;;;;;;;9.37;2.70;;;16.60;99.90;;;;;;5116206;22;20280;-88
2023/10/24 10:46:28;;;;;;;2.83;2.70;;;16.60;99.90;;;;;;5107583;28;20173;-87
2023/10/24 10:49:06;;;;;;;3.00;2.80;;;16.50;99.90;;;;;;5108153;28;20197;-84
2023/10/24 10:51:33;;;;;;;3.20;2.87;;;16.50;99.90;;;;;;5094614;28;20177;-85
2023/10/24 10:54:21;;;;;;;2.93;2.73;;;16.30;99.90;;;;;;5083117;28;20548;-85
2023/10/24 10:56:50;;;;;;;4.00;2.80;;;16.20;99.90;;;;;;5054536;28;20167;-85
2023/10/24 10:59:37;;;;;;;3.43;3.17;;;16.00;99.90;;;;;;5063697;28;20194;-85
2023/10/24 11:02:32;;;;;;;3.00;2.80;;;15.80;99.90;;;;;;5074162;28;20586;-85
2023/10/24 11:04:57;;;;;;;4.27;3.17;;;15.70;99.90;;;;;;5073342;28;20170;-85
2023/10/24 11:07:51;;;;;;;3.00;2.70;;;15.60;99.90;;;;;;5075042;28;20171;-85
2023/10/24 11:10:18;;;;;;;3.23;3.03;;;15.50;99.90;;;;;;5073716;28;20218;-85
2023/10/24 11:12:47;;;;;;;3.50;3.20;;;15.30;99.90;;;;;;5074355;28;20198;-85
2023/10/24 11:15:13;;;;;;;3.27;3.07;;;15.20;99.90;;;;;;5073559;28;20682;-85
2023/10/24 11:17:40;;;;;;;4.93;3.27;;;15.10;99.90;;;;;;5074762;28;20177;-85
2023/10/24 11:20:10;;;;;;;4.43;2.93;;;15.00;99.90;;;;;;5073649;28;20190;-85
2023/10/24 11:22:36;;;;;;;3.40;3.20;;;14.90;99.90;;;;;;5073501;28;20662;-85
2023/10/24 11:25:09;;;;;;;3.40;3.10;;;14.80;99.90;;;;;;5074435;28;20219;-85
2023/10/24 11:27:35;;;;;;;4.70;3.53;;;14.70;99.90;;;;;;5080386;28;20169;-85
2023/10/24 11:30:00;;;;;;;3.17;2.97;;;14.60;99.90;;;;;;5093200;28;20201;-85
2023/10/24 11:32:27;;;;;;;3.63;3.33;;;14.40;99.90;;;;;;5094446;28;20201;-84
2023/10/24 11:34:54;;;;;;;4.87;3.60;;;14.30;99.90;;;;;;5092788;28;20181;-84
2023/10/24 11:37:20;;;;;;;3.60;3.30;;;14.20;99.90;;;;;;5095089;28;20166;-85
2023/10/24 11:39:45;;;;;;;3.70;3.40;;;14.10;99.90;;;;;;5093519;28;20676;-85
2023/10/24 11:42:11;;;;;;;3.90;3.60;;;14.00;99.90;;;;;;5094281;28;20177;-84
2023/10/24 11:44:39;;;;;;;4.00;3.60;;;13.80;99.90;;;;;;5092468;28;20178;-84
2023/10/24 11:47:07;;;;;;;3.57;3.27;;;13.70;99.90;;;;;;5092914;28;20176;-84
2023/10/24 11:49:53;;;;;;;6.37;3.67;;;13.50;99.90;;;;;;5088427;28;20216;-84
2023/10/24 11:52:19;;;;;;;5.60;4.20;;;13.50;99.90;;;;;;5072827;28;20205;-84
2023/10/24 11:54:51;;;;;;;4.97;4.47;;;13.40;99.90;;;;;;5081020;28;20169;-84
2023/10/24 11:57:18;;;;;;;5.07;4.57;;;13.40;99.90;;;;;;5077985;28;20249;-85
2023/10/24 11:59:47;;;;;;;5.57;5.07;;;13.40;99.90;;;;;;5074155;28;20538;-84
2023/10/24 12:02:13;;;;;;;4.93;4.60;;;13.40;99.90;;;;;;5079187;28;20630;-85
2023/10/24 12:04:40;;;;;;;5.63;4.90;;;13.30;99.90;;;;;;5077524;28;20181;-84
2023/10/24 12:07:09;;;;;;;5.10;4.60;;;13.30;99.90;;;;;;5098219;28;20529;-84
2023/10/24 12:09:36;;;;;;;5.17;4.77;;;13.30;99.90;;;;;;5099086;28;20194;-84
2023/10/24 12:12:06;;;;;;;5.73;4.40;;;13.20;99.90;;;;;;5098154;28;20239;-85
2023/10/24 12:14:35;;;;;;;5.97;4.40;;;13.10;99.90;;;;;;5096878;28;20184;-85
2023/10/24 12:17:00;;;;;;;4.17;3.77;;;13.10;99.90;;;;;;5093959;28;20197;-85
2023/10/24 12:19:26;;;;;;;3.80;3.50;;;13.00;99.90;;;;;;5090176;28;20663;-85
2023/10/24 12:21:53;;;;;;;3.57;3.37;;;12.90;99.90;;;;;;5073256;28;20185;-84
2023/10/24 12:24:19;;;;;;;3.60;3.40;;;12.80;99.90;;;;;;5085446;28;20272;-85
2023/10/24 12:26:44;;;;;;;4.00;3.27;;;12.80;99.90;;;;;;5092955;28;20204;-85
2023/10/24 12:29:10;;;;;;;4.10;3.70;;;12.60;99.90;;;;;;5094421;28;20204;-85
2023/10/24 12:31:39;;;;;;;3.30;3.10;;;12.60;99.90;;;;;;5093061;28;20174;-84
2023/10/24 12:34:05;;;;;;;4.20;3.67;;;12.60;99.90;;;;;;5089995;28;20757;-85
2023/10/24 12:36:31;;;;;;;3.70;3.50;;;12.60;99.90;;;;;;5072668;28;20174;-84
2023/10/24 12:38:58;;;;;;;3.80;3.50;;;12.80;99.90;;;;;;5074418;28;20321;-85
2023/10/24 12:41:24;;;;;;;3.50;3.30;;;12.80;99.90;;;;;;5074635;28;20642;-85
2023/10/24 12:43:49;;;;;;;3.90;3.60;;;12.90;99.90;;;;;;5074452;28;20186;-85
2023/10/24 12:46:15;;;;;;;3.87;3.57;;;13.00;99.90;;;;;;5072448;28;20288;-85
2023/10/24 12:48:41;;;;;;;4.40;4.10;;;13.00;99.90;;;;;;5074392;28;20244;-84